Time;durP1;ratioP1;P1;durP2;ratioP2;P2;SDS_P1;SDS_P2;PMS_P1;PMS_P2;Temp;Humidity;BMP_temperature;BMP_pressure;BME280_temperature;BME280_humidity;BME280_pressure;Samples;Min_cycle;Max_cycle;Signal;HPM_P1;HPM_P2
2021/03/31 06:00:24;;;;;;;;;;;;;;;;;;;;;
2021/03/31 06:58:03;;;;;;;5.97;3.35;;;10.40;73.40;;;;;;5118174;28;20383;-91
2021/03/31 07:05:03;;;;;;;;;;;;;;;;;;;;;
2021/03/31 07:08:11;;;;;;;6.75;4.63;;;10.90;71.60;;;;;;5111952;28;20038;-93
2021/03/31 07:11:27;;;;;;;;;;;;;;;;;;;;;
2021/03/31 07:17:53;;;;;;;;;;;;;;;;;;;;;
2021/03/31 07:34:53;;;;;;;9.15;4.15;;;12.10;67.10;;;;;;5033926;28;20087;-92
2021/03/31 07:44:21;;;;;;;8.77;4.22;;;12.50;65.90;;;;;;5059168;28;20044;-93
2021/03/31 07:47:10;;;;;;;6.75;4.25;;;12.60;65.70;;;;;;5050105;28;20044;-93
2021/03/31 07:50:27;;;;;;;;;;;;;;;;;;;;;
2021/03/31 07:56:45;;;;;;;7.22;4.55;;;13.10;64.70;;;;;;5083858;28;20118;-91
2021/03/31 08:00:10;;;;;;;9.45;5.13;;;13.20;63.70;;;;;;5041673;28;20047;-91
2021/03/31 08:06:38;;;;;;;13.07;6.15;;;13.60;63.20;;;;;;5053719;28;20071;-92
2021/03/31 08:09:33;;;;;;;7.15;4.70;;;13.80;61.90;;;;;;5097183;28;20752;-91
2021/03/31 08:15:02;;;;;;;10.85;5.30;;;14.00;61.50;;;;;;5087225;28;20043;-92
2021/03/31 08:17:40;;;;;;;8.45;4.38;;;14.20;61.60;;;;;;5098434;28;20032;-92
2021/03/31 08:20:28;;;;;;;7.57;4.15;;;14.40;62.50;;;;;;5100615;28;20344;-92
2021/03/31 08:23:19;;;;;;;6.68;4.15;;;14.60;62.10;;;;;;5101115;28;20139;-92
2021/03/31 08:26:32;;;;;;;16.02;5.63;;;14.70;61.90;;;;;;5100627;28;20040;-93
2021/03/31 08:29:43;;;;;;;7.35;4.57;;;15.00;60.40;;;;;;5101254;28;20269;-92
2021/03/31 08:35:44;;;;;;;;;;;;;;;;;;;;;
2021/03/31 08:38:50;;;;;;;;;;;;;;;;;;;;;
2021/03/31 08:56:03;;;;;;;13.90;5.20;;;17.10;57.40;;;;;;5033251;28;20056;-92
2021/03/31 08:58:48;;;;;;;9.43;5.43;;;17.30;55.90;;;;;;5021249;28;20033;-93
2021/03/31 09:01:38;;;;;;;11.45;5.20;;;17.50;55.20;;;;;;5063235;28;20046;-92
2021/03/31 09:04:25;;;;;;;10.77;6.05;;;17.80;55.30;;;;;;5117462;28;20059;-93
2021/03/31 09:09:45;;;;;;;12.48;5.88;;;18.20;53.40;;;;;;5018496;28;20033;-92
2021/03/31 09:12:36;;;;;;;12.55;5.57;;;18.50;54.40;;;;;;5113436;27;20035;-92
2021/03/31 09:16:09;;;;;;;11.18;5.50;;;18.60;53.10;;;;;;5102864;28;20089;-92
2021/03/31 09:18:57;;;;;;;11.45;5.78;;;18.80;51.80;;;;;;5097596;28;20580;-92
2021/03/31 09:21:41;;;;;;;;;;;;;;;;;;;;;
2021/03/31 09:27:42;;;;;;;19.50;6.57;;;19.40;50.30;;;;;;5088767;28;20512;-91
2021/03/31 09:30:18;;;;;;;12.80;5.97;;;19.60;51.80;;;;;;5092266;28;20188;-91
2021/03/31 09:32:59;;;;;;;10.38;5.85;;;19.70;49.50;;;;;;5102075;28;20039;-92
2021/03/31 09:35:32;;;;;;;13.25;6.35;;;19.90;50.30;;;;;;5136682;27;20304;-92
2021/03/31 09:37:57;;;;;;;14.77;6.50;;;20.10;49.70;;;;;;5101975;28;20040;-91
2021/03/31 09:40:33;;;;;;;14.25;6.32;;;20.20;48.60;;;;;;5102509;28;20666;-90
2021/03/31 09:43:03;;;;;;;10.80;5.57;;;20.30;48.80;;;;;;5102326;28;20039;-92
2021/03/31 09:45:39;;;;;;;17.08;5.63;;;20.50;48.10;;;;;;5104979;28;20059;-92
2021/03/31 09:48:06;;;;;;;8.32;5.47;;;20.50;50.10;;;;;;5101568;28;20046;-90
2021/03/31 09:50:34;;;;;;;11.18;5.47;;;20.60;48.30;;;;;;5106240;28;20100;-93
2021/03/31 09:53:06;;;;;;;9.13;4.55;;;20.70;47.40;;;;;;5105211;28;20368;-91
2021/03/31 09:55:35;;;;;;;8.02;4.72;;;20.90;48.00;;;;;;5113214;28;20400;-92
2021/03/31 09:58:01;;;;;;;14.13;5.85;;;21.00;46.50;;;;;;5118240;28;20122;-92
2021/03/31 10:00:27;;;;;;;6.57;4.55;;;21.10;48.10;;;;;;5101462;28;20151;-91
2021/03/31 10:02:54;;;;;;;9.85;4.57;;;21.30;47.60;;;;;;5117574;28;20627;-92
2021/03/31 10:05:22;;;;;;;11.63;4.97;;;21.40;46.30;;;;;;5101385;28;20039;-91
2021/03/31 10:08:00;;;;;;;8.55;4.88;;;21.60;46.50;;;;;;5109787;28;20031;-92
2021/03/31 10:10:46;;;;;;;9.88;5.15;;;21.80;44.80;;;;;;5101287;28;20638;-91
2021/03/31 10:13:14;;;;;;;7.57;4.32;;;21.90;43.90;;;;;;5106071;28;20039;-91
2021/03/31 10:15:45;;;;;;;11.63;5.80;;;22.10;43.70;;;;;;5100290;28;20046;-89
2021/03/31 10:18:11;;;;;;;7.68;3.85;;;22.10;42.70;;;;;;5082768;28;20036;-91
2021/03/31 10:20:45;;;;;;;9.57;4.97;;;22.10;42.70;;;;;;5114927;28;20043;-90
2021/03/31 10:23:29;;;;;;;9.00;4.60;;;22.20;42.70;;;;;;5100784;28;20044;-92
2021/03/31 10:26:20;;;;;;;9.35;4.82;;;22.30;43.70;;;;;;5119198;28;20050;-91
2021/03/31 10:28:46;;;;;;;10.23;4.57;;;22.40;41.50;;;;;;5104809;28;20076;-92
2021/03/31 10:31:26;;;;;;;9.98;3.75;;;22.40;41.10;;;;;;5103183;28;20043;-92
2021/03/31 10:33:54;;;;;;;15.15;4.72;;;22.50;42.20;;;;;;5101093;28;20051;-92
2021/03/31 10:36:49;;;;;;;7.65;4.63;;;22.60;41.50;;;;;;5108413;28;20035;-90
2021/03/31 10:48:13;;;;;;;351.42;59.40;;;23.20;42.10;;;;;;5001704;28;20321;-92
2021/03/31 10:50:43;;;;;;;9.52;5.32;;;23.40;41.10;;;;;;5002807;28;20304;-89
2021/03/31 10:53:12;;;;;;;7.97;5.07;;;23.60;40.30;;;;;;5067142;28;20040;-92
2021/03/31 10:55:40;;;;;;;14.57;5.20;;;23.60;40.50;;;;;;5118952;28;20315;-95
2021/03/31 10:58:06;;;;;;;9.63;5.47;;;23.70;39.30;;;;;;5097893;28;20036;-94
2021/03/31 11:00:34;;;;;;;7.90;4.93;;;23.80;39.90;;;;;;5102109;28;20036;-94
2021/03/31 11:02:59;;;;;;;8.88;5.20;;;23.80;39.20;;;;;;5104697;28;20044;-94
2021/03/31 11:05:25;;;;;;;9.25;5.47;;;23.90;39.30;;;;;;5102346;28;20171;-94
2021/03/31 11:07:51;;;;;;;11.02;6.05;;;24.00;39.40;;;;;;5098117;28;20043;-92
2021/03/31 11:10:16;;;;;;;8.75;4.78;;;24.10;38.50;;;;;;5098643;28;20032;-93
2021/03/31 11:12:43;;;;;;;9.50;5.35;;;24.10;38.90;;;;;;5102029;28;20833;-93
2021/03/31 11:15:12;;;;;;;10.88;5.80;;;24.30;39.00;;;;;;5101667;28;20036;-93
2021/03/31 11:26:01;;;;;;;14.00;6.18;;;24.50;39.40;;;;;;5098635;28;20043;-92
2021/03/31 11:28:27;;;;;;;12.02;5.22;;;24.50;38.00;;;;;;5081288;28;20035;-92
2021/03/31 11:30:53;;;;;;;16.95;7.32;;;24.50;38.90;;;;;;5081425;28;20036;-92
2021/03/31 11:33:22;;;;;;;11.13;6.00;;;24.50;37.50;;;;;;5082123;28;20063;-91
2021/03/31 11:35:49;;;;;;;13.50;6.32;;;24.40;38.70;;;;;;5086824;28;20039;-93
2021/03/31 11:38:15;;;;;;;17.65;8.40;;;24.40;39.80;;;;;;5099304;28;20036;-93
2021/03/31 11:40:41;;;;;;;13.45;6.47;;;24.40;38.80;;;;;;5108833;28;20114;-93
2021/03/31 11:43:11;;;;;;;12.18;7.22;;;24.50;40.50;;;;;;5156624;27;20126;-93
2021/03/31 11:45:45;;;;;;;20.25;7.35;;;24.50;41.20;;;;;;5154318;27;20027;-92
2021/03/31 11:48:19;;;;;;;13.30;7.70;;;24.70;40.00;;;;;;5101656;28;20043;-94
2021/03/31 11:51:10;;;;;;;13.10;7.10;;;24.80;38.50;;;;;;5101566;28;20032;-93
2021/03/31 11:53:53;;;;;;;18.73;8.27;;;24.90;40.70;;;;;;5107242;28;20031;-94
2021/03/31 11:56:27;;;;;;;14.07;8.48;;;25.00;38.00;;;;;;5111270;27;20415;-92
2021/03/31 11:58:56;;;;;;;11.45;7.22;;;25.00;40.90;;;;;;5125689;27;20062;-92
2021/03/31 12:01:42;;;;;;;13.32;6.95;;;25.00;39.70;;;;;;5153107;27;20032;-94
2021/03/31 12:04:53;;;;;;;;;;;;;;;;;;;;;
2021/03/31 12:07:33;;;;;;;10.77;6.35;;;25.00;41.70;;;;;;5108611;28;20038;-95
2021/03/31 12:10:01;;;;;;;13.50;5.82;;;25.10;40.50;;;;;;5105492;28;20248;-94
2021/03/31 12:12:56;;;;;;;;;;;;;;;;;;;;;
2021/03/31 12:23:16;;;;;;;9.25;5.75;;;25.30;39.00;;;;;;5049455;28;20045;-94
2021/03/31 12:26:13;;;;;;;12.95;5.60;;;25.50;37.80;;;;;;5043089;28;20052;-94
2021/03/31 12:29:16;;;;;;;;;;;;;;;;;;;;;
2021/03/31 12:32:19;;;;;;;9.27;6.35;;;25.60;36.50;;;;;;5019969;28;20032;-95
2021/03/31 12:55:55;;;;;;;9.63;5.68;;;25.80;37.00;;;;;;5049329;27;20030;-95
2021/03/31 12:59:17;;;;;;;;;;;;;;;;;;;;;
2021/03/31 13:41:27;;;;;;;9.23;4.60;;;26.10;35.30;;;;;;5128507;27;20058;-92
2021/03/31 13:44:10;;;;;;;9.07;6.00;;;26.20;34.30;;;;;;5120122;28;20047;-95
2021/03/31 13:46:43;;;;;;;11.30;5.15;;;26.20;35.00;;;;;;5119932;28;20043;-91
2021/03/31 13:49:15;;;;;;;9.40;5.03;;;26.20;33.20;;;;;;5106022;28;20050;-95
2021/03/31 13:51:49;;;;;;;;;;;26.30;34.60;;;;;;5102897;28;20114;-92
2021/03/31 13:54:16;;;;;;;11.25;6.00;;;26.30;33.90;;;;;;5102441;28;20007;-92
2021/03/31 13:56:43;;;;;;;9.52;5.43;;;26.30;35.40;;;;;;5115976;28;20046;-93
2021/03/31 13:59:09;;;;;;;9.60;5.30;;;26.30;34.20;;;;;;5103074;28;20050;-93
2021/03/31 14:01:35;;;;;;;8.98;4.97;;;26.30;33.60;;;;;;5119767;28;20408;-93
2021/03/31 14:04:04;;;;;;;8.32;4.65;;;26.30;32.80;;;;;;5102738;28;20084;-94
2021/03/31 14:06:32;;;;;;;9.00;5.45;;;26.30;33.20;;;;;;5120264;28;20035;-93
2021/03/31 14:08:57;;;;;;;9.90;5.45;;;26.40;32.90;;;;;;5120477;28;20346;-93
2021/03/31 14:11:23;;;;;;;8.07;5.20;;;26.30;33.20;;;;;;5116746;28;20051;-94
2021/03/31 14:13:49;;;;;;;8.82;5.35;;;26.40;33.60;;;;;;5120495;28;20071;-93
2021/03/31 14:16:19;;;;;;;12.40;6.35;;;26.40;32.80;;;;;;5112546;28;20136;-94
2021/03/31 14:18:45;;;;;;;13.10;5.38;;;26.40;34.60;;;;;;5121961;28;20074;-92
2021/03/31 14:21:14;;;;;;;13.00;6.32;;;26.40;34.40;;;;;;5105462;28;20031;-93
2021/03/31 14:23:40;;;;;;;11.32;5.53;;;26.40;33.80;;;;;;5103160;28;20072;-93
2021/03/31 14:26:05;;;;;;;11.80;6.28;;;26.40;33.30;;;;;;5119418;28;20035;-94
2021/03/31 14:28:32;;;;;;;12.98;5.15;;;26.40;32.40;;;;;;5109010;28;20032;-93
2021/03/31 14:37:49;;;;;;;8.80;5.72;;;26.40;33.20;;;;;;5057467;28;20496;-94
2021/03/31 14:40:15;;;;;;;9.10;5.22;;;26.50;33.70;;;;;;5055159;28;20035;-93
2021/03/31 14:42:48;;;;;;;10.05;5.90;;;26.50;32.90;;;;;;5102659;28;20039;-95
2021/03/31 14:45:15;;;;;;;17.23;6.78;;;26.50;31.50;;;;;;5119414;28;20043;-96
2021/03/31 14:47:43;;;;;;;13.80;6.47;;;26.40;33.30;;;;;;5102450;28;20074;-95
2021/03/31 14:50:29;;;;;;;10.32;4.78;;;26.40;32.20;;;;;;5108649;28;20031;-94
2021/03/31 14:59:28;;;;;;;9.93;5.43;;;26.60;33.10;;;;;;5131157;27;20377;-94
2021/03/31 15:01:01;;;;;;;9.43;4.50;;;26.60;33.00;;;;;;5116123;28;20130;-92
2021/03/31 15:03:27;;;;;;;7.93;4.55;;;26.60;33.40;;;;;;5119659;28;20085;-93
2021/03/31 15:05:58;;;;;;;10.63;5.18;;;26.60;34.70;;;;;;5116797;28;20039;-93
2021/03/31 15:22:35;;;;;;;8.90;4.20;;;26.50;31.70;;;;;;4994967;28;20035;-93
2021/03/31 15:25:29;;;;;;;;;;;26.50;32.50;;;;;;5047952;28;20656;-93
2021/03/31 15:27:59;;;;;;;5.88;3.75;;;26.40;31.90;;;;;;5052611;28;19919;-92
2021/03/31 15:31:01;;;;;;;8.45;5.05;;;26.40;32.30;;;;;;5057564;28;20028;-90
2021/03/31 15:33:27;;;;;;;9.02;4.85;;;26.40;31.60;;;;;;5057067;28;20044;-92
2021/03/31 15:36:06;;;;;;;7.30;4.80;;;26.40;32.10;;;;;;5057373;28;20052;-92
2021/03/31 15:38:32;;;;;;;11.25;4.93;;;26.40;33.70;;;;;;5081341;28;20069;-92
2021/03/31 15:40:58;;;;;;;10.15;5.00;;;26.50;33.30;;;;;;5103855;28;20460;-92
2021/03/31 15:43:23;;;;;;;6.60;4.13;;;26.40;31.70;;;;;;5101628;28;20122;-93
2021/03/31 15:45:55;;;;;;;9.55;4.97;;;26.50;32.30;;;;;;5117614;28;20074;-93
2021/03/31 15:48:22;;;;;;;7.80;4.60;;;26.50;34.40;;;;;;5101473;28;20463;-94
2021/03/31 15:50:47;;;;;;;8.65;4.63;;;26.50;33.90;;;;;;5101690;28;20035;-94
2021/03/31 15:53:16;;;;;;;10.85;4.30;;;26.40;33.80;;;;;;5118304;28;20043;-94
2021/03/31 15:59:07;;;;;;;7.75;4.68;;;26.30;32.90;;;;;;5076782;28;20862;-94
2021/03/31 16:01:54;;;;;;;7.32;4.78;;;26.10;32.20;;;;;;5051308;28;20129;-95
2021/03/31 16:05:07;;;;;;;7.78;3.80;;;26.00;32.30;;;;;;5058964;28;20303;-94
2021/03/31 16:07:33;;;;;;;11.05;4.32;;;25.90;32.90;;;;;;5057106;28;20036;-95
2021/03/31 16:10:05;;;;;;;8.35;4.65;;;25.80;34.30;;;;;;5067366;28;20433;-94
2021/03/31 16:12:37;;;;;;;8.50;4.35;;;25.70;33.90;;;;;;5093936;28;20274;-94
2021/03/31 16:15:07;;;;;;;;;;;25.60;34.00;;;;;;5115621;28;20059;-95
2021/03/31 16:17:32;;;;;;;9.48;4.70;;;25.50;32.20;;;;;;5101822;28;19908;-94
2021/03/31 16:19:58;;;;;;;7.78;4.47;;;25.40;33.50;;;;;;5100738;28;20077;-93
2021/03/31 16:22:23;;;;;;;6.97;4.65;;;25.40;33.20;;;;;;5118228;28;20036;-94
2021/03/31 16:24:49;;;;;;;7.45;4.43;;;25.30;34.60;;;;;;5101173;28;20606;-93
2021/03/31 16:27:18;;;;;;;10.93;4.80;;;25.20;34.40;;;;;;5117807;28;20035;-93
2021/03/31 16:30:00;;;;;;;10.43;5.30;;;25.20;33.80;;;;;;5101375;28;20119;-93
2021/03/31 16:32:31;;;;;;;10.10;5.10;;;25.10;35.70;;;;;;5101028;28;20402;-94
2021/03/31 16:34:56;;;;;;;9.13;5.03;;;25.10;35.10;;;;;;5113182;28;20046;-93
2021/03/31 16:37:30;;;;;;;9.80;5.10;;;25.00;34.00;;;;;;5117811;28;20031;-93
2021/03/31 16:39:57;;;;;;;8.15;4.05;;;24.90;34.70;;;;;;5121680;28;20081;-94
2021/03/31 16:42:23;;;;;;;13.63;4.45;;;24.90;34.10;;;;;;5104863;28;20123;-94
2021/03/31 16:44:51;;;;;;;9.32;4.10;;;24.80;33.60;;;;;;5123849;28;20119;-94
2021/03/31 16:47:19;;;;;;;7.57;3.92;;;24.70;34.20;;;;;;5105663;28;20027;-93
2021/03/31 16:49:49;;;;;;;11.35;4.50;;;24.70;34.60;;;;;;5125521;27;20032;-93
2021/03/31 16:52:22;;;;;;;7.05;4.60;;;24.60;34.40;;;;;;5104781;28;20092;-93
2021/03/31 16:54:48;;;;;;;12.00;4.68;;;24.60;34.10;;;;;;5137149;27;20036;-93
2021/03/31 16:57:16;;;;;;;6.93;4.40;;;24.50;34.20;;;;;;5104343;28;20035;-92
2021/03/31 16:59:42;;;;;;;7.97;4.35;;;24.40;34.40;;;;;;5104630;28;20122;-93
2021/03/31 17:02:10;;;;;;;11.50;4.20;;;24.40;34.80;;;;;;5104338;28;20129;-93
2021/03/31 17:05:00;;;;;;;8.63;5.15;;;24.30;34.60;;;;;;5122391;28;20062;-94
2021/03/31 17:07:38;;;;;;;8.05;4.88;;;24.10;35.00;;;;;;5121753;28;20042;-94
2021/03/31 17:10:10;;;;;;;8.45;4.82;;;24.00;35.00;;;;;;5104614;28;20039;-94
2021/03/31 17:12:38;;;;;;;10.43;4.70;;;23.80;34.90;;;;;;5104606;28;20040;-94
2021/03/31 17:15:14;;;;;;;10.73;5.13;;;23.70;35.00;;;;;;5109514;28;20046;-94
2021/03/31 17:17:42;;;;;;;11.77;4.57;;;23.60;35.30;;;;;;5111189;28;20092;-93
2021/03/31 17:20:20;;;;;;;7.40;4.50;;;23.50;35.70;;;;;;5095649;28;20123;-94
2021/03/31 17:23:02;;;;;;;8.88;4.47;;;23.40;35.80;;;;;;5100284;28;20101;-93
2021/03/31 17:25:39;;;;;;;7.07;4.80;;;23.20;35.70;;;;;;5089937;28;20032;-93
2021/03/31 17:28:09;;;;;;;7.43;4.70;;;23.10;35.80;;;;;;5111439;28;20043;-93
2021/03/31 17:30:51;;;;;;;8.45;4.43;;;23.00;36.00;;;;;;5120622;28;20027;-92
2021/03/31 17:33:41;;;;;;;10.98;5.32;;;22.90;36.30;;;;;;5105579;28;20527;-93
2021/03/31 17:36:13;;;;;;;7.38;4.93;;;22.70;36.60;;;;;;5121273;28;20043;-94
2021/03/31 17:38:47;;;;;;;7.80;3.85;;;22.50;36.80;;;;;;5104291;28;20036;-94
2021/03/31 17:41:16;;;;;;;6.55;3.83;;;22.40;37.30;;;;;;5103663;28;20036;-93
2021/03/31 17:43:47;;;;;;;7.15;3.72;;;22.20;37.50;;;;;;5120227;28;20043;-93
2021/03/31 17:46:12;;;;;;;6.72;4.13;;;22.10;37.80;;;;;;5107479;28;20054;-93
2021/03/31 17:48:38;;;;;;;5.30;3.90;;;21.90;38.30;;;;;;5121367;28;20032;-93
2021/03/31 17:51:15;;;;;;;5.60;3.55;;;21.80;39.00;;;;;;5121184;27;20035;-93
2021/03/31 17:53:47;;;;;;;6.15;3.55;;;21.60;39.50;;;;;;5157682;27;20173;-93
2021/03/31 17:56:13;;;;;;;7.20;3.55;;;21.50;40.10;;;;;;5158104;27;20066;-94
2021/03/31 17:58:38;;;;;;;7.55;4.55;;;21.30;39.70;;;;;;5105229;28;20720;-93
2021/03/31 18:01:07;;;;;;;9.88;4.75;;;21.20;39.60;;;;;;5106213;28;20035;-92
2021/03/31 18:03:41;;;;;;;8.68;5.13;;;21.00;40.20;;;;;;5103446;28;20134;-93
2021/03/31 18:06:07;;;;;;;9.75;5.72;;;20.80;40.10;;;;;;5103636;28;20047;-93
2021/03/31 18:08:43;;;;;;;12.93;5.38;;;20.70;40.20;;;;;;5103803;28;20055;-92
2021/03/31 18:11:22;;;;;;;9.00;4.88;;;20.50;40.80;;;;;;5128802;28;20038;-93
2021/03/31 18:13:59;;;;;;;13.77;6.07;;;20.40;41.50;;;;;;5120755;28;20347;-94
2021/03/31 18:16:25;;;;;;;12.80;6.10;;;20.20;41.70;;;;;;5120735;28;20389;-92
2021/03/31 18:18:51;;;;;;;11.85;6.68;;;20.20;42.30;;;;;;5110484;28;20036;-93
2021/03/31 18:21:20;;;;;;;15.95;7.60;;;20.00;42.80;;;;;;5103641;28;20077;-92
2021/03/31 18:23:45;;;;;;;15.52;8.10;;;19.90;43.20;;;;;;5109912;28;20143;-92
2021/03/31 18:26:18;;;;;;;14.95;7.72;;;19.80;43.60;;;;;;5103745;28;20067;-93
2021/03/31 18:28:44;;;;;;;18.85;7.88;;;19.70;44.00;;;;;;5110684;28;20069;-92
2021/03/31 18:31:10;;;;;;;11.10;6.40;;;19.60;44.20;;;;;;5111153;28;20075;-93
2021/03/31 18:33:35;;;;;;;19.35;9.38;;;19.50;44.40;;;;;;5103362;28;20117;-91
2021/03/31 18:36:04;;;;;;;21.52;9.68;;;19.40;44.90;;;;;;5108240;28;20039;-92
2021/03/31 18:38:30;;;;;;;17.08;7.22;;;19.30;45.20;;;;;;5120292;28;20101;-92
2021/03/31 18:41:04;;;;;;;13.98;9.00;;;19.20;45.20;;;;;;5120470;28;20278;-92
2021/03/31 18:43:37;;;;;;;12.60;8.52;;;19.10;45.30;;;;;;5120300;28;20067;-92
2021/03/31 18:46:03;;;;;;;17.35;9.27;;;19.10;45.70;;;;;;5118969;28;20031;-93
2021/03/31 18:48:28;;;;;;;17.35;8.63;;;19.00;46.40;;;;;;5119545;28;20389;-92
2021/03/31 18:50:55;;;;;;;18.17;8.50;;;18.90;46.30;;;;;;5118918;28;20031;-91
2021/03/31 18:53:21;;;;;;;21.25;9.73;;;18.90;46.80;;;;;;5102554;28;20036;-92
2021/03/31 18:55:47;;;;;;;15.00;8.73;;;18.80;46.60;;;;;;5102744;28;20039;-93
2021/03/31 18:58:13;;;;;;;17.08;8.32;;;18.70;46.70;;;;;;5102179;28;20042;-93
2021/03/31 19:00:39;;;;;;;16.20;8.63;;;18.70;46.50;;;;;;5120203;28;20067;-93
2021/03/31 19:03:08;;;;;;;19.48;9.00;;;18.70;46.60;;;;;;5101854;28;20063;-95
2021/03/31 19:05:36;;;;;;;19.55;8.40;;;18.60;47.20;;;;;;5104553;28;20049;-94
2021/03/31 19:08:07;;;;;;;17.08;8.10;;;18.60;47.60;;;;;;5102679;28;20118;-94
2021/03/31 19:13:18;;;;;;;14.95;8.93;;;18.40;47.50;;;;;;5120376;28;20092;-92
2021/03/31 19:15:43;;;;;;;13.52;8.43;;;18.40;47.60;;;;;;5102593;28;20035;-93
2021/03/31 19:18:09;;;;;;;14.48;7.97;;;18.20;47.60;;;;;;5102150;28;20039;-92
2021/03/31 19:20:38;;;;;;;14.85;8.80;;;18.20;47.80;;;;;;5101991;28;20649;-92
2021/03/31 19:23:06;;;;;;;15.63;8.77;;;18.10;48.90;;;;;;5102123;28;20043;-92
2021/03/31 19:25:31;;;;;;;22.42;9.30;;;17.90;49.00;;;;;;5102164;28;20031;-93
2021/03/31 19:27:57;;;;;;;16.73;9.30;;;17.90;49.50;;;;;;5102342;28;20031;-93
2021/03/31 19:30:23;;;;;;;16.02;8.57;;;17.80;49.70;;;;;;5101928;28;20083;-94
2021/03/31 19:32:48;;;;;;;19.25;10.13;;;17.70;49.90;;;;;;5102359;28;20328;-93
2021/03/31 19:35:15;;;;;;;17.83;8.43;;;17.60;50.50;;;;;;5101807;28;20047;-94
2021/03/31 19:37:49;;;;;;;18.30;7.82;;;17.50;50.70;;;;;;5101930;28;20097;-94
2021/03/31 19:40:25;;;;;;;16.73;8.45;;;17.40;51.00;;;;;;5102213;28;20115;-94
2021/03/31 19:42:56;;;;;;;16.83;8.70;;;17.30;51.00;;;;;;5102098;28;20442;-94
2021/03/31 19:45:31;;;;;;;12.55;7.68;;;17.30;51.60;;;;;;5101770;28;20044;-94
2021/03/31 19:48:20;;;;;;;18.60;8.45;;;17.20;52.10;;;;;;5101933;28;20537;-94
2021/03/31 19:50:58;;;;;;;14.98;7.93;;;17.00;52.40;;;;;;5100843;28;20312;-95
2021/03/31 19:53:48;;;;;;;13.32;7.82;;;16.90;52.60;;;;;;5101846;28;20036;-93
2021/03/31 19:56:16;;;;;;;13.68;7.25;;;16.80;52.90;;;;;;5103708;28;20068;-93
2021/03/31 19:58:47;;;;;;;15.32;8.07;;;16.70;53.30;;;;;;5102468;28;20047;-94
2021/03/31 20:01:26;;;;;;;12.73;7.25;;;16.60;53.30;;;;;;5101942;28;20385;-93
2021/03/31 20:03:52;;;;;;;11.88;6.45;;;16.50;53.40;;;;;;5102207;28;20036;-92
2021/03/31 20:06:27;;;;;;;14.18;6.65;;;16.40;53.80;;;;;;5114329;28;20149;-93
2021/03/31 20:08:54;;;;;;;10.65;6.32;;;16.30;54.10;;;;;;5100271;28;20043;-94
2021/03/31 20:11:33;;;;;;;11.27;6.05;;;16.20;54.50;;;;;;5101310;28;20043;-93
2021/03/31 20:13:59;;;;;;;11.95;5.93;;;16.10;54.50;;;;;;5116137;28;20077;-94
2021/03/31 20:16:25;;;;;;;8.25;5.05;;;16.00;54.90;;;;;;5108369;28;20050;-93
2021/03/31 20:19:11;;;;;;;10.77;5.95;;;15.90;55.30;;;;;;5122892;28;20032;-93
2021/03/31 20:21:40;;;;;;;16.05;6.28;;;15.70;55.50;;;;;;5105304;28;20122;-93
2021/03/31 20:24:08;;;;;;;10.38;5.97;;;15.70;56.00;;;;;;5105293;28;20047;-94
2021/03/31 20:26:34;;;;;;;13.00;7.25;;;15.60;56.40;;;;;;5105013;28;20036;-93
2021/03/31 20:29:00;;;;;;;10.73;6.18;;;15.50;57.40;;;;;;5105315;28;20118;-92
2021/03/31 20:31:28;;;;;;;12.40;6.97;;;15.50;57.10;;;;;;5105622;28;20078;-92
2021/03/31 20:34:16;;;;;;;9.25;5.65;;;15.40;57.20;;;;;;5122120;28;20031;-94
2021/03/31 20:36:51;;;;;;;11.27;6.63;;;15.30;57.20;;;;;;5105308;28;20035;-94
2021/03/31 20:39:17;;;;;;;17.17;8.02;;;15.30;57.00;;;;;;5105423;28;20069;-94
2021/03/31 20:41:52;;;;;;;13.45;6.88;;;15.20;57.20;;;;;;5107462;28;20032;-93
2021/03/31 20:44:26;;;;;;;14.13;7.25;;;15.20;57.60;;;;;;5110979;28;20039;-94
2021/03/31 20:46:52;;;;;;;13.88;7.72;;;15.10;57.80;;;;;;5122250;28;20043;-94
2021/03/31 20:49:20;;;;;;;17.40;7.60;;;15.00;58.30;;;;;;5104669;28;20095;-94
2021/03/31 20:51:45;;;;;;;11.50;7.32;;;15.00;58.60;;;;;;5109307;28;20266;-94
2021/03/31 20:54:14;;;;;;;15.23;7.68;;;14.90;58.70;;;;;;5122017;28;20038;-93
2021/03/31 20:56:44;;;;;;;14.05;7.82;;;14.80;58.90;;;;;;5121343;28;20393;-94
2021/03/31 20:59:11;;;;;;;20.88;9.60;;;14.80;59.20;;;;;;5118841;28;20051;-94
2021/03/31 21:01:37;;;;;;;10.30;6.97;;;14.70;59.30;;;;;;5115711;28;20050;-94
2021/03/31 21:04:04;;;;;;;13.55;8.20;;;14.70;59.30;;;;;;5121356;28;20035;-93
2021/03/31 21:06:29;;;;;;;20.27;10.88;;;14.60;59.70;;;;;;5121178;28;20304;-94
2021/03/31 21:08:55;;;;;;;29.83;13.40;;;14.50;59.80;;;;;;5109697;28;20126;-94
2021/03/31 21:11:20;;;;;;;40.70;17.13;;;14.50;60.10;;;;;;5109105;28;20073;-95
2021/03/31 21:13:46;;;;;;;43.10;20.75;;;14.40;60.10;;;;;;5110779;28;20036;-93
2021/03/31 21:16:11;;;;;;;49.72;23.88;;;14.30;60.20;;;;;;5112876;28;20127;-93
2021/03/31 21:18:37;;;;;;;50.70;24.48;;;14.30;60.30;;;;;;5126871;28;20053;-92
2021/03/31 21:21:03;;;;;;;56.45;26.40;;;14.20;60.20;;;;;;5116762;28;20035;-93
2021/03/31 21:23:28;;;;;;;63.53;26.75;;;14.20;60.30;;;;;;5110852;28;20040;-94
2021/03/31 21:25:56;;;;;;;52.17;28.65;;;14.10;60.40;;;;;;5107435;28;20392;-94
2021/03/31 21:28:24;;;;;;;58.92;29.25;;;14.10;60.70;;;;;;5101176;28;20035;-95
2021/03/31 21:30:55;;;;;;;61.13;31.88;;;14.00;60.60;;;;;;5105547;28;20047;-95
2021/03/31 21:33:31;;;;;;;63.15;35.92;;;14.00;60.70;;;;;;5111362;28;20035;-94
2021/03/31 21:35:56;;;;;;;53.45;29.38;;;13.90;60.40;;;;;;5110569;28;20036;-94
2021/03/31 21:38:22;;;;;;;48.33;28.15;;;13.90;61.30;;;;;;5114795;28;20069;-94
2021/03/31 21:40:47;;;;;;;49.13;27.52;;;13.80;61.60;;;;;;5112500;28;20069;-94
2021/03/31 21:43:16;;;;;;;47.53;27.15;;;13.80;61.80;;;;;;5104904;28;20043;-94
2021/03/31 21:45:41;;;;;;;45.22;25.35;;;13.70;62.10;;;;;;5108397;28;20077;-94
2021/03/31 21:48:07;;;;;;;48.38;25.77;;;13.70;62.50;;;;;;5107249;28;20035;-94
2021/03/31 21:50:33;;;;;;;51.65;26.98;;;13.60;62.80;;;;;;5104078;28;20289;-94
2021/03/31 21:52:58;;;;;;;45.45;24.85;;;13.60;62.80;;;;;;5120861;28;20039;-94
2021/03/31 21:55:34;;;;;;;46.53;24.98;;;13.60;62.90;;;;;;5112404;28;20115;-94
2021/03/31 21:58:00;;;;;;;38.45;22.05;;;13.60;63.10;;;;;;5107343;28;20039;-94
2021/03/31 22:00:42;;;;;;;38.90;22.75;;;13.50;63.50;;;;;;5118626;28;20047;-93
2021/03/31 22:03:10;;;;;;;41.37;22.37;;;13.50;63.70;;;;;;5102794;28;20100;-93
2021/03/31 22:06:02;;;;;;;40.78;22.35;;;13.50;64.10;;;;;;5102343;28;20074;-93
2021/03/31 22:08:50;;;;;;;36.38;18.48;;;13.50;64.60;;;;;;5101611;28;20039;-93
2021/03/31 22:14:20;;;;;;;31.42;17.65;;;13.40;64.90;;;;;;5121259;28;20114;-93
2021/03/31 22:17:12;;;;;;;32.50;19.23;;;13.40;65.00;;;;;;5120219;28;20088;-92
2021/03/31 22:20:19;;;;;;;35.70;18.02;;;13.30;65.20;;;;;;5121223;28;20063;-93
2021/03/31 22:22:53;;;;;;;32.28;17.17;;;13.30;65.20;;;;;;5120504;28;20047;-92
2021/03/31 22:25:27;;;;;;;33.58;16.92;;;13.20;65.30;;;;;;5120102;28;20289;-93
2021/03/31 22:27:58;;;;;;;30.80;17.42;;;13.20;65.40;;;;;;5123123;27;20046;-93
2021/03/31 22:30:47;;;;;;;32.72;17.17;;;13.10;66.30;;;;;;5123273;27;20106;-94
2021/03/31 22:33:22;;;;;;;26.50;15.63;;;13.10;66.50;;;;;;5082928;28;20040;-94
2021/03/31 22:36:25;;;;;;;34.00;16.80;;;13.00;66.40;;;;;;5082327;28;20090;-94
2021/03/31 22:39:14;;;;;;;;;;;;;;;;;;;;;
2021/03/31 22:41:55;;;;;;;34.13;16.25;;;13.00;67.80;;;;;;5115674;28;20039;-93
2021/03/31 22:44:36;;;;;;;27.73;15.30;;;12.90;67.90;;;;;;5103054;28;20126;-94
2021/03/31 22:47:34;;;;;;;31.13;15.52;;;12.80;67.40;;;;;;5102285;28;20036;-94
2021/03/31 22:50:07;;;;;;;28.92;15.18;;;12.80;68.00;;;;;;5102008;28;20089;-94
2021/03/31 22:55:46;;;;;;;28.10;15.65;;;12.70;68.30;;;;;;5120156;28;20038;-94
2021/03/31 22:58:13;;;;;;;27.33;16.17;;;12.60;68.90;;;;;;5102212;28;20070;-94
2021/03/31 23:00:50;;;;;;;28.45;16.05;;;12.60;69.00;;;;;;5109759;28;20070;-95
2021/03/31 23:03:16;;;;;;;30.83;15.80;;;12.50;69.00;;;;;;5109942;28;20401;-94
2021/03/31 23:05:48;;;;;;;28.73;16.00;;;12.50;69.20;;;;;;5102944;28;20036;-94
2021/03/31 23:08:19;;;;;;;17.98;11.60;;;12.50;69.20;;;;;;5105345;28;20553;-94
2021/03/31 23:10:45;;;;;;;27.55;15.07;;;12.40;69.40;;;;;;5103127;28;20035;-94
2021/03/31 23:13:13;;;;;;;28.02;15.60;;;12.40;69.40;;;;;;5081886;28;20108;-94
2021/03/31 23:15:54;;;;;;;27.65;14.55;;;12.40;69.60;;;;;;5102319;28;20143;-93
2021/03/31 23:18:23;;;;;;;26.38;15.27;;;12.30;69.70;;;;;;5102102;28;20040;-93
2021/03/31 23:21:11;;;;;;;29.33;15.38;;;12.30;70.10;;;;;;5101905;28;20043;-93
2021/03/31 23:23:44;;;;;;;30.15;15.50;;;12.30;70.40;;;;;;5102293;28;20039;-92
2021/03/31 23:26:12;;;;;;;28.77;18.02;;;12.20;70.70;;;;;;5102234;28;20044;-93
2021/03/31 23:28:43;;;;;;;29.13;16.27;;;12.20;70.70;;;;;;5107041;28;20297;-93
2021/03/31 23:31:12;;;;;;;32.38;16.60;;;12.10;71.10;;;;;;5107238;28;20118;-93